createdAt,value
2022-11-09T00:00:40.643Z,12.32
2022-11-09T00:01:44.170Z,12.48
2022-11-09T00:02:47.217Z,12.43
2022-11-09T00:03:56.491Z,12.20
2022-11-09T00:04:59.446Z,12.73
2022-11-09T00:06:02.650Z,13.23
2022-11-09T00:07:05.737Z,11.98
2022-11-09T00:08:10.864Z,12.15
2022-11-09T00:09:13.940Z,12.52
2022-11-09T00:10:17.118Z,11.45
2022-11-09T00:11:21.502Z,11.93
2022-11-09T00:12:24.571Z,11.18
2022-11-09T00:13:27.560Z,13.13
2022-11-09T00:14:31.222Z,11.52
2022-11-09T00:15:34.254Z,10.90
2022-11-09T00:16:37.267Z,11.73
2022-11-09T00:17:40.276Z,11.77
2022-11-09T00:18:47.539Z,12.02
2022-11-09T00:19:50.677Z,11.75
2022-11-09T00:20:53.964Z,12.25
2022-11-09T00:21:57.010Z,12.73
2022-11-09T00:23:03.011Z,12.00
2022-11-09T00:24:06.567Z,12.75
2022-11-09T00:25:10.073Z,10.95
2022-11-09T00:26:15.406Z,11.30
2022-11-09T00:27:18.547Z,13.13
2022-11-09T00:28:21.571Z,11.75
2022-11-09T00:29:24.682Z,12.20
2022-11-09T00:30:27.761Z,12.73
2022-11-09T00:31:30.939Z,13.07
2022-11-09T00:32:34.091Z,12.30
2022-11-09T00:33:37.435Z,12.27
2022-11-09T00:34:41.474Z,11.20
2022-11-09T00:35:44.442Z,12.20
2022-11-09T00:36:47.527Z,12.48
2022-11-09T00:37:50.555Z,11.70
2022-11-09T00:38:58.501Z,12.38
2022-11-09T00:40:01.469Z,12.27
2022-11-09T00:41:06.037Z,12.48
2022-11-09T00:42:09.011Z,12.50
2022-11-09T00:43:12.315Z,12.35
2022-11-09T00:44:15.321Z,13.23
2022-11-09T00:45:18.260Z,13.48
2022-11-09T00:46:21.925Z,12.63
2022-11-09T00:47:27.107Z,12.95
2022-11-09T00:48:30.263Z,11.82
2022-11-09T00:49:33.269Z,12.15
2022-11-09T00:50:36.339Z,13.13
2022-11-09T00:51:39.434Z,12.27
2022-11-09T00:52:42.974Z,13.35
2022-11-09T00:53:48.507Z,13.50
2022-11-09T00:54:51.696Z,12.25
2022-11-09T00:56:07.329Z,13.00
2022-11-09T00:57:14.074Z,11.88
2022-11-09T00:58:20.111Z,14.45
2022-11-09T00:59:23.123Z,11.57
2022-11-09T01:00:26.128Z,13.82
2022-11-09T01:01:29.657Z,11.40
2022-11-09T01:02:33.744Z,13.88
2022-11-09T01:03:37.052Z,12.93
2022-11-09T01:04:40.043Z,13.05
2022-11-09T01:05:43.428Z,13.00
2022-11-09T01:06:46.446Z,14.52
2022-11-09T01:07:49.788Z,13.70
2022-11-09T01:08:53.523Z,13.15
2022-11-09T01:09:56.514Z,13.30
2022-11-09T01:11:08.747Z,13.93
2022-11-09T01:12:11.898Z,12.63
2022-11-09T01:13:18.597Z,12.13
2022-11-09T01:14:21.956Z,13.05
2022-11-09T01:15:25.299Z,13.00
2022-11-09T01:16:28.464Z,13.27
2022-11-09T01:17:32.690Z,13.32
2022-11-09T01:18:36.349Z,13.65
2022-11-09T01:19:39.330Z,13.27
2022-11-09T01:20:45.416Z,13.60
2022-11-09T01:21:48.451Z,13.02
2022-11-09T01:22:51.369Z,13.05
2022-11-09T01:23:55.323Z,12.30
2022-11-09T01:24:58.335Z,13.05
2022-11-09T01:26:05.312Z,13.63
2022-11-09T01:27:08.538Z,12.63
2022-11-09T01:28:12.921Z,13.00
2022-11-09T01:29:15.943Z,13.07
2022-11-09T01:30:19.232Z,13.88
2022-11-09T01:31:22.770Z,14.52
2022-11-09T01:32:25.903Z,13.30
2022-11-09T01:33:28.988Z,15.20
2022-11-09T01:34:32.373Z,12.73
2022-11-09T01:35:40.704Z,12.85
2022-11-09T01:36:43.672Z,13.57
2022-11-09T01:37:46.819Z,14.30
2022-11-09T01:38:50.846Z,14.57
2022-11-09T01:39:53.834Z,13.32
2022-11-09T01:40:57.037Z,13.65
2022-11-09T01:42:00.033Z,13.10
2022-11-09T01:43:22.646Z,13.25
2022-11-09T01:44:29.721Z,14.60
2022-11-09T01:45:33.518Z,13.13
2022-11-09T01:46:58.302Z,13.65
2022-11-09T01:48:18.625Z,12.77
2022-11-09T01:49:46.992Z,13.32
2022-11-09T01:50:57.323Z,13.57
2022-11-09T01:52:12.251Z,14.40
2022-11-09T01:53:21.310Z,13.35
2022-11-09T01:54:33.429Z,14.32
2022-11-09T01:55:37.128Z,13.65
2022-11-09T01:56:40.964Z,13.65
2022-11-09T01:57:49.342Z,14.15
2022-11-09T01:59:08.562Z,15.13
2022-11-09T02:00:15.960Z,14.50
2022-11-09T02:01:19.522Z,13.27
2022-11-09T02:02:23.385Z,15.15
2022-11-09T02:03:42.888Z,14.40
2022-11-09T02:04:57.404Z,14.07
2022-11-09T02:06:06.666Z,13.77
2022-11-09T02:07:09.801Z,13.80
2022-11-09T02:08:18.920Z,13.35
2022-11-09T02:09:48.918Z,12.73
2022-11-09T02:11:20.424Z,13.45
2022-11-09T02:12:26.039Z,13.90
2022-11-09T02:13:30.549Z,12.77
2022-11-09T02:14:35.768Z,12.63
2022-11-09T02:15:42.867Z,13.73
2022-11-09T02:16:48.965Z,14.30
2022-11-09T02:17:55.099Z,13.90
2022-11-09T02:19:01.109Z,12.88
2022-11-09T02:20:15.747Z,15.07
2022-11-09T02:21:19.903Z,13.68
2022-11-09T02:22:23.924Z,13.20
2022-11-09T02:23:27.757Z,14.77
2022-11-09T02:24:33.827Z,13.48
2022-11-09T02:25:36.926Z,13.40
2022-11-09T02:26:49.508Z,14.43
2022-11-09T02:27:52.768Z,12.70
2022-11-09T02:28:58.334Z,13.60
2022-11-09T02:30:02.608Z,14.52
2022-11-09T02:31:11.161Z,13.63
2022-11-09T02:32:28.243Z,14.27
2022-11-09T02:34:11.429Z,14.70
2022-11-09T02:35:14.529Z,14.98
2022-11-09T02:36:18.032Z,12.70
2022-11-09T02:37:58.853Z,13.57
2022-11-09T02:39:03.364Z,14.32
2022-11-09T02:40:16.858Z,15.45
2022-11-09T02:41:22.031Z,13.52
2022-11-09T02:42:25.164Z,14.88
2022-11-09T02:43:28.314Z,13.07
2022-11-09T02:44:36.729Z,14.75
2022-11-09T02:45:39.789Z,14.82
2022-11-09T02:46:43.027Z,14.48
2022-11-09T02:47:46.156Z,13.45
2022-11-09T02:48:49.160Z,13.80
2022-11-09T02:49:52.528Z,14.50
2022-11-09T02:50:56.313Z,14.20
2022-11-09T02:51:59.439Z,14.88
2022-11-09T02:53:02.905Z,15.07
2022-11-09T02:54:07.819Z,14.68
2022-11-09T02:55:10.905Z,14.00
2022-11-09T02:56:14.886Z,14.15
2022-11-09T02:57:17.965Z,15.65
2022-11-09T02:58:20.911Z,14.07
2022-11-09T02:59:23.989Z,13.93
2022-11-09T03:00:27.094Z,15.20
2022-11-09T03:01:31.600Z,14.50
2022-11-09T03:02:35.392Z,13.90
2022-11-09T03:03:38.903Z,14.50
2022-11-09T03:04:41.941Z,13.95
2022-11-09T03:05:45.197Z,14.25
2022-11-09T03:06:50.147Z,13.65
2022-11-09T03:07:55.210Z,13.55
2022-11-09T03:08:58.733Z,14.55
2022-11-09T03:10:01.867Z,14.05
2022-11-09T03:11:06.464Z,15.05
2022-11-09T03:12:28.736Z,13.88
2022-11-09T03:13:34.802Z,14.23
2022-11-09T03:14:38.389Z,14.70
2022-11-09T03:15:41.647Z,14.40
2022-11-09T03:16:50.218Z,14.73
2022-11-09T03:17:53.709Z,13.63
2022-11-09T03:18:58.204Z,14.18
2022-11-09T03:20:02.247Z,14.77
2022-11-09T03:21:06.640Z,15.98
2022-11-09T03:22:09.719Z,15.75
2022-11-09T03:23:12.811Z,14.15
2022-11-09T03:24:16.480Z,15.45
2022-11-09T03:25:19.468Z,15.52
2022-11-09T03:26:23.137Z,14.85
2022-11-09T03:27:26.312Z,15.13
2022-11-09T03:28:29.462Z,14.70
2022-11-09T03:29:33.651Z,16.60
2022-11-09T03:30:37.101Z,14.60
2022-11-09T03:31:40.630Z,15.05
2022-11-09T03:32:50.285Z,15.50
2022-11-09T03:33:53.736Z,16.20
2022-11-09T03:34:56.991Z,16.92
2022-11-09T03:36:00.557Z,15.60
2022-11-09T03:37:05.519Z,14.52
2022-11-09T03:38:08.761Z,17.02
2022-11-09T03:39:12.236Z,16.05
2022-11-09T03:40:15.239Z,15.13
2022-11-09T03:41:18.978Z,15.90
2022-11-09T03:42:21.962Z,14.65
2022-11-09T03:43:25.702Z,15.95
2022-11-09T03:44:28.867Z,15.52
2022-11-09T03:45:31.962Z,16.60
2022-11-09T03:46:35.045Z,16.42
2022-11-09T03:47:45.191Z,15.80
2022-11-09T03:48:48.269Z,16.15
2022-11-09T03:49:51.200Z,16.13
2022-11-09T03:50:56.852Z,15.60
2022-11-09T03:52:00.002Z,15.60
2022-11-09T03:53:03.194Z,16.00
2022-11-09T03:54:06.375Z,13.93
2022-11-09T03:55:09.839Z,15.88
2022-11-09T03:56:12.937Z,14.77
2022-11-09T03:57:15.909Z,16.27
2022-11-09T03:58:19.004Z,14.45
2022-11-09T03:59:22.001Z,15.65
2022-11-09T04:00:25.345Z,15.27
2022-11-09T04:01:28.700Z,13.68
2022-11-09T04:02:31.716Z,14.45
2022-11-09T04:03:34.837Z,14.55
2022-11-09T04:04:38.203Z,13.73
2022-11-09T04:05:41.171Z,14.65
2022-11-09T04:06:44.284Z,14.57
2022-11-09T04:07:53.180Z,13.98
2022-11-09T04:08:56.168Z,14.35
2022-11-09T04:09:59.280Z,14.50
2022-11-09T04:11:02.424Z,15.70
2022-11-09T04:12:05.977Z,15.38
2022-11-09T04:13:09.126Z,14.60
2022-11-09T04:14:12.163Z,15.27
2022-11-09T04:15:16.073Z,14.52
2022-11-09T04:16:19.171Z,16.20
2022-11-09T04:17:22.213Z,16.08
2022-11-09T04:18:25.194Z,16.52
2022-11-09T04:19:28.274Z,15.15
2022-11-09T04:20:32.626Z,15.60
2022-11-09T04:21:35.741Z,14.07
2022-11-09T04:22:38.927Z,14.43
2022-11-09T04:23:41.948Z,16.23
2022-11-09T04:24:44.956Z,15.13
2022-11-09T04:25:48.067Z,15.02
2022-11-09T04:26:54.749Z,16.60
2022-11-09T04:27:59.117Z,18.63
2022-11-09T04:29:02.145Z,16.00
2022-11-09T04:30:05.914Z,18.05
2022-11-09T04:31:09.100Z,17.90
2022-11-09T04:32:12.138Z,17.75
2022-11-09T04:33:15.262Z,18.02
2022-11-09T04:34:18.694Z,18.70
2022-11-09T04:35:21.877Z,17.20
2022-11-09T04:36:25.692Z,15.20
2022-11-09T04:37:28.692Z,15.30
2022-11-09T04:38:32.184Z,16.30
2022-11-09T04:39:35.408Z,15.50
2022-11-09T04:40:38.635Z,15.48
2022-11-09T04:41:41.619Z,16.65
2022-11-09T04:42:44.681Z,16.70
2022-11-09T04:43:47.941Z,15.93
2022-11-09T04:44:50.942Z,15.88
2022-11-09T04:45:54.022Z,16.55
2022-11-09T04:46:57.025Z,15.40
2022-11-09T04:48:06.317Z,16.10
2022-11-09T04:49:09.661Z,15.40
2022-11-09T04:50:13.227Z,15.27
2022-11-09T04:51:16.687Z,15.32
2022-11-09T04:52:19.696Z,15.50
2022-11-09T04:53:22.875Z,15.93
2022-11-09T04:54:26.044Z,16.15
2022-11-09T04:55:29.099Z,16.23
2022-11-09T04:56:32.209Z,17.08
2022-11-09T04:57:35.234Z,16.75
2022-11-09T04:58:38.882Z,16.45
2022-11-09T04:59:42.414Z,16.65
2022-11-09T05:00:45.516Z,16.40
2022-11-09T05:01:48.554Z,16.67
2022-11-09T05:02:51.591Z,17.42
2022-11-09T05:03:54.675Z,15.82
2022-11-09T05:04:57.755Z,15.00
2022-11-09T05:06:01.100Z,15.85
2022-11-09T05:07:04.352Z,15.90
2022-11-09T05:08:07.714Z,16.23
2022-11-09T05:09:10.757Z,16.17
2022-11-09T05:10:14.041Z,15.60
2022-11-09T05:11:17.524Z,15.73
2022-11-09T05:12:20.584Z,16.08
2022-11-09T05:13:23.692Z,15.85
2022-11-09T05:14:26.652Z,14.00
2022-11-09T05:15:30.139Z,16.50
2022-11-09T05:16:33.224Z,16.08
2022-11-09T05:17:36.268Z,16.08
2022-11-09T05:18:39.315Z,17.02
2022-11-09T05:19:42.341Z,15.75
2022-11-09T05:20:45.475Z,14.93
2022-11-09T05:21:48.567Z,15.95
2022-11-09T05:23:10.404Z,15.48
2022-11-09T05:24:13.602Z,15.68
2022-11-09T05:25:16.792Z,15.23
2022-11-09T05:26:19.798Z,16.05
2022-11-09T05:27:22.784Z,15.50
2022-11-09T05:28:25.871Z,14.98
2022-11-09T05:29:29.095Z,14.38
2022-11-09T05:30:32.194Z,16.73
2022-11-09T05:31:36.227Z,14.93
2022-11-09T05:32:40.180Z,16.35
2022-11-09T05:33:43.193Z,15.07
2022-11-09T05:34:46.227Z,14.82
2022-11-09T05:35:49.256Z,15.32
2022-11-09T05:36:52.228Z,15.60
2022-11-09T05:37:55.284Z,15.63
2022-11-09T05:38:59.079Z,15.55
2022-11-09T05:40:02.163Z,15.60
2022-11-09T05:41:05.420Z,15.55
2022-11-09T05:42:10.298Z,16.55
2022-11-09T05:43:13.425Z,16.20
2022-11-09T05:44:16.650Z,16.45
2022-11-09T05:46:43.299Z,16.13
2022-11-09T05:47:46.435Z,15.65
2022-11-09T05:48:49.650Z,14.38
2022-11-09T05:49:52.665Z,16.42
2022-11-09T05:50:55.650Z,16.27
2022-11-09T05:52:02.025Z,15.13
2022-11-09T05:53:05.158Z,16.00
2022-11-09T05:54:09.152Z,15.95
2022-11-09T05:55:12.175Z,16.80
2022-11-09T05:56:15.754Z,16.55
2022-11-09T05:57:18.780Z,16.05
2022-11-09T05:58:21.880Z,16.20
2022-11-09T05:59:24.914Z,17.88
2022-11-09T06:00:28.832Z,17.00
2022-11-09T06:01:31.840Z,16.50
2022-11-09T06:02:34.888Z,16.00
2022-11-09T06:03:37.950Z,16.88
2022-11-09T06:04:41.029Z,16.30
2022-11-09T06:05:44.060Z,16.35
2022-11-09T06:06:47.205Z,15.88
2022-11-09T06:07:50.339Z,16.27
2022-11-09T06:08:53.452Z,17.05
2022-11-09T06:09:56.571Z,17.02
2022-11-09T06:11:02.607Z,15.27
2022-11-09T06:12:06.150Z,17.27
2022-11-09T06:13:09.683Z,17.25
2022-11-09T06:14:12.770Z,16.30
2022-11-09T06:15:15.948Z,16.88
2022-11-09T06:16:19.134Z,17.25
2022-11-09T06:17:22.216Z,15.82
2022-11-09T06:18:27.436Z,17.90
2022-11-09T06:19:30.422Z,16.27
2022-11-09T06:20:33.747Z,15.52
2022-11-09T06:21:36.713Z,17.35
2022-11-09T06:22:39.688Z,16.17
2022-11-09T06:23:42.717Z,17.35
2022-11-09T06:24:45.795Z,18.52
2022-11-09T06:25:50.077Z,15.10
2022-11-09T06:26:53.080Z,16.85
2022-11-09T06:27:56.471Z,16.17
2022-11-09T06:28:59.496Z,17.83
2022-11-09T06:30:02.538Z,16.95
2022-11-09T06:31:08.193Z,17.40
2022-11-09T06:32:11.173Z,16.45
2022-11-09T06:33:14.266Z,17.67
2022-11-09T06:34:17.481Z,15.50
2022-11-09T06:35:20.594Z,16.52
2022-11-09T06:36:23.840Z,17.48
2022-11-09T06:37:26.868Z,18.75
2022-11-09T06:38:30.279Z,17.05
2022-11-09T06:39:33.292Z,17.13
2022-11-09T06:40:37.188Z,16.42
2022-11-09T06:41:44.617Z,17.92
2022-11-09T06:42:50.266Z,16.73
2022-11-09T06:43:53.378Z,17.52
2022-11-09T06:44:56.468Z,17.85
2022-11-09T06:46:02.269Z,15.10
2022-11-09T06:47:05.323Z,16.67
2022-11-09T06:48:10.317Z,17.05
2022-11-09T06:49:13.379Z,15.80
2022-11-09T06:50:16.675Z,15.60
2022-11-09T06:51:19.883Z,17.92
2022-11-09T06:52:23.062Z,17.10
2022-11-09T06:53:27.858Z,17.88
2022-11-09T06:54:31.396Z,16.40
2022-11-09T06:55:36.265Z,17.00
2022-11-09T06:56:39.287Z,17.55
2022-11-09T06:57:42.250Z,17.67
2022-11-09T06:58:45.315Z,17.38
2022-11-09T06:59:48.753Z,17.33
2022-11-09T07:00:51.909Z,17.20
2022-11-09T07:02:00.150Z,16.42
2022-11-09T07:03:04.685Z,18.52
2022-11-09T07:04:07.748Z,15.93
2022-11-09T07:05:10.725Z,17.70
2022-11-09T07:06:14.678Z,18.42
2022-11-09T07:07:17.984Z,17.52
2022-11-09T07:08:21.096Z,18.73
2022-11-09T07:09:24.155Z,17.75
2022-11-09T07:10:27.091Z,16.02
2022-11-09T07:11:30.165Z,16.23
2022-11-09T07:12:34.751Z,17.83
2022-11-09T07:13:38.887Z,17.23
2022-11-09T07:14:41.952Z,16.27
2022-11-09T07:15:45.016Z,16.90
2022-11-09T07:16:47.957Z,18.50
2022-11-09T07:17:51.082Z,17.77
2022-11-09T07:18:54.017Z,18.15
2022-11-09T07:19:57.302Z,17.73
2022-11-09T07:21:00.743Z,16.95
2022-11-09T07:22:03.946Z,16.88
2022-11-09T07:23:07.067Z,17.13
2022-11-09T07:24:10.064Z,19.05
2022-11-09T07:25:13.706Z,18.13
2022-11-09T07:26:17.363Z,17.40
2022-11-09T07:27:24.812Z,18.65
2022-11-09T07:28:30.691Z,18.40
2022-11-09T07:29:33.743Z,18.35
2022-11-09T07:30:37.309Z,16.75
2022-11-09T07:31:40.338Z,18.27
2022-11-09T07:34:07.076Z,16.92
2022-11-09T07:35:10.249Z,18.50
2022-11-09T07:36:16.939Z,19.23
2022-11-09T07:37:23.999Z,18.75
2022-11-09T07:38:29.351Z,20.20
2022-11-09T07:39:32.410Z,20.90
2022-11-09T07:40:36.213Z,21.15
2022-11-09T07:41:39.265Z,21.45
2022-11-09T07:42:42.242Z,21.30
2022-11-09T07:43:45.241Z,18.73
2022-11-09T07:44:49.700Z,20.45
2022-11-09T07:45:53.256Z,19.75
2022-11-09T07:46:56.445Z,19.55
2022-11-09T07:48:02.667Z,19.33
2022-11-09T07:49:05.808Z,18.25
2022-11-09T07:50:09.395Z,19.95
2022-11-09T07:51:12.599Z,18.45
2022-11-09T07:52:15.677Z,18.15
2022-11-09T07:53:18.967Z,19.42
2022-11-09T07:54:22.284Z,19.70
2022-11-09T07:55:26.461Z,19.23
2022-11-09T07:56:29.539Z,18.85
2022-11-09T07:57:32.552Z,19.15
2022-11-09T07:58:36.956Z,18.13
2022-11-09T07:59:40.182Z,20.25
2022-11-09T08:00:44.188Z,18.92
2022-11-09T08:01:47.302Z,19.75
2022-11-09T08:02:50.487Z,19.30
2022-11-09T08:03:54.695Z,18.20
2022-11-09T08:04:57.718Z,17.52
2022-11-09T08:06:00.759Z,17.55
2022-11-09T08:07:03.951Z,18.75
2022-11-09T08:08:11.336Z,18.23
2022-11-09T08:09:14.348Z,16.60
2022-11-09T08:10:17.482Z,16.63
2022-11-09T08:11:20.667Z,16.95
2022-11-09T08:12:23.625Z,16.30
2022-11-09T08:13:26.917Z,15.80
2022-11-09T08:14:29.916Z,17.25
2022-11-09T08:15:34.274Z,15.68
2022-11-09T08:16:38.028Z,15.80
2022-11-09T08:17:41.141Z,15.18
2022-11-09T08:18:44.547Z,16.55
2022-11-09T08:19:47.726Z,16.30
2022-11-09T08:20:50.865Z,15.52
2022-11-09T08:21:57.452Z,15.73
2022-11-09T08:23:04.047Z,16.27
2022-11-09T08:24:08.079Z,16.05
2022-11-09T08:25:12.375Z,15.82
2022-11-09T08:26:15.556Z,16.05
2022-11-09T08:27:18.633Z,15.02
2022-11-09T08:28:22.924Z,15.18
2022-11-09T08:29:26.207Z,15.93
2022-11-09T08:30:29.423Z,16.58
2022-11-09T08:31:32.602Z,15.35
2022-11-09T08:32:35.593Z,15.70
2022-11-09T08:33:41.515Z,16.20
2022-11-09T08:34:48.606Z,15.88
2022-11-09T08:35:53.330Z,16.35
2022-11-09T08:37:00.771Z,16.73
2022-11-09T08:38:05.754Z,15.63
2022-11-09T08:39:09.361Z,15.32
2022-11-09T08:40:13.060Z,15.70
2022-11-09T08:41:19.133Z,15.13
2022-11-09T08:42:22.558Z,16.45
2022-11-09T08:43:26.679Z,15.90
2022-11-09T08:44:29.688Z,15.05
2022-11-09T08:45:36.063Z,16.33
2022-11-09T08:46:41.411Z,17.10
2022-11-09T08:47:45.708Z,15.98
2022-11-09T08:48:48.719Z,15.25
2022-11-09T08:49:51.986Z,16.70
2022-11-09T08:50:59.366Z,15.60
2022-11-09T08:52:02.514Z,16.23
2022-11-09T08:53:06.527Z,15.32
2022-11-09T08:54:11.329Z,16.42
2022-11-09T08:55:14.354Z,17.00
2022-11-09T08:56:19.193Z,15.98
2022-11-09T08:57:22.621Z,15.88
2022-11-09T08:58:26.005Z,14.82
2022-11-09T08:59:29.111Z,16.58
2022-11-09T09:00:32.581Z,15.85
2022-11-09T09:01:35.678Z,16.02
2022-11-09T09:02:38.934Z,15.60
2022-11-09T09:03:42.015Z,14.73
2022-11-09T09:04:45.098Z,15.43
2022-11-09T09:05:48.393Z,15.63
2022-11-09T09:06:52.331Z,14.25
2022-11-09T09:07:55.528Z,14.05
2022-11-09T09:08:58.728Z,16.15
2022-11-09T09:10:01.676Z,15.10
2022-11-09T09:11:05.835Z,14.77
2022-11-09T09:12:10.274Z,16.00
2022-11-09T09:13:13.496Z,15.55
2022-11-09T09:14:16.570Z,14.80
2022-11-09T09:15:19.787Z,15.32
2022-11-09T09:16:22.787Z,15.63
2022-11-09T09:17:26.828Z,15.07
2022-11-09T09:18:29.888Z,15.07
2022-11-09T09:19:32.979Z,14.98
2022-11-09T09:20:36.117Z,14.80
2022-11-09T09:21:39.623Z,15.50
2022-11-09T09:22:42.738Z,15.23
2022-11-09T09:23:49.463Z,14.88
2022-11-09T09:24:52.483Z,14.10
2022-11-09T09:25:58.668Z,15.00
2022-11-09T09:27:02.911Z,15.30
2022-11-09T09:28:06.104Z,15.23
2022-11-09T09:29:09.084Z,14.80
2022-11-09T09:30:13.299Z,14.25
2022-11-09T09:31:18.544Z,15.18
2022-11-09T09:32:21.980Z,13.82
2022-11-09T09:33:25.147Z,15.38
2022-11-09T09:34:28.376Z,14.35
2022-11-09T09:35:31.831Z,15.90
2022-11-09T09:36:35.599Z,15.02
2022-11-09T09:37:38.760Z,14.63
2022-11-09T09:38:41.845Z,15.02
2022-11-09T09:39:45.006Z,15.23
2022-11-09T09:41:01.528Z,14.30
2022-11-09T09:42:18.812Z,15.48
2022-11-09T09:43:44.021Z,14.30
2022-11-09T09:45:23.586Z,14.38
2022-11-09T09:46:44.215Z,14.23
2022-11-09T09:48:09.119Z,14.20
2022-11-09T09:49:27.498Z,15.80
2022-11-09T09:50:45.502Z,14.88
2022-11-09T09:52:15.120Z,13.98
2022-11-09T09:53:35.683Z,14.48
2022-11-09T09:54:49.252Z,14.15
2022-11-09T09:56:03.715Z,14.38
2022-11-09T09:57:19.809Z,12.88
2022-11-09T09:58:29.574Z,13.32
2022-11-09T09:59:45.074Z,14.57
2022-11-09T10:00:50.445Z,14.30
2022-11-09T10:01:53.612Z,13.30
2022-11-09T10:02:56.687Z,16.45
2022-11-09T10:03:59.763Z,14.43
2022-11-09T10:05:12.081Z,15.10
2022-11-09T10:06:47.985Z,13.82
2022-11-09T10:08:25.904Z,13.40
2022-11-09T10:10:21.414Z,13.18
2022-11-09T10:12:04.965Z,13.95
2022-11-09T10:13:34.231Z,12.80
2022-11-09T10:15:03.229Z,13.80
2022-11-09T10:16:59.882Z,13.07
2022-11-09T10:18:39.602Z,13.60
2022-11-09T10:20:15.817Z,12.65
2022-11-09T10:21:50.163Z,14.48
2022-11-09T10:23:16.231Z,13.43
2022-11-09T10:24:48.658Z,13.25
2022-11-09T10:26:19.158Z,13.68
2022-11-09T10:27:44.028Z,14.25
2022-11-09T10:30:23.220Z,13.07
2022-11-09T10:31:33.588Z,14.40
2022-11-09T10:32:37.135Z,14.48
2022-11-09T10:33:40.239Z,14.35
2022-11-09T10:35:14.532Z,14.57
2022-11-09T10:36:45.318Z,14.77
2022-11-09T10:37:52.780Z,13.57
2022-11-09T10:39:01.506Z,14.43
2022-11-09T10:40:50.120Z,14.30
2022-11-09T10:42:12.586Z,13.55
2022-11-09T10:43:34.036Z,14.43
2022-11-09T10:44:55.437Z,13.75
2022-11-09T10:46:17.542Z,14.20
2022-11-09T10:47:51.528Z,14.00
2022-11-09T10:49:21.822Z,14.73
2022-11-09T10:50:54.790Z,13.55
2022-11-09T10:52:47.064Z,12.43
2022-11-09T10:54:26.753Z,14.15
2022-11-09T10:56:20.722Z,13.70
2022-11-09T10:58:15.677Z,13.23
2022-11-09T10:59:57.910Z,13.30
2022-11-09T11:01:35.831Z,12.57
2022-11-09T11:02:57.660Z,14.45
2022-11-09T11:04:24.680Z,13.95
2022-11-09T11:05:59.320Z,14.20
2022-11-09T11:07:22.802Z,14.57
2022-11-09T11:08:48.217Z,13.10
2022-11-09T11:10:20.881Z,14.77
2022-11-09T11:11:42.703Z,13.32
2022-11-09T11:13:04.348Z,13.43
2022-11-09T11:14:42.353Z,13.57
2022-11-09T11:16:29.066Z,13.88
2022-11-09T11:17:51.402Z,13.30
2022-11-09T11:19:37.552Z,13.60
2022-11-09T11:21:18.490Z,12.20
2022-11-09T11:22:40.632Z,14.23
2022-11-09T11:24:15.459Z,13.18
2022-11-09T11:26:15.942Z,13.20
2022-11-09T11:27:48.980Z,13.10
2022-11-09T11:29:37.627Z,12.63
2022-11-09T11:30:59.161Z,13.23
2022-11-09T11:32:21.492Z,14.48
2022-11-09T11:33:43.524Z,13.40
2022-11-09T11:35:27.053Z,14.30
2022-11-09T11:37:03.851Z,12.63
2022-11-09T11:38:56.396Z,14.00
2022-11-09T11:41:04.406Z,12.70
2022-11-09T11:43:19.332Z,12.60
2022-11-09T11:45:07.350Z,13.55
2022-11-09T11:47:10.676Z,12.63
2022-11-09T11:48:48.362Z,14.02
2022-11-09T11:50:52.033Z,13.40
2022-11-09T11:52:29.559Z,14.00
2022-11-09T11:54:26.055Z,13.40
2022-11-09T11:56:18.067Z,13.25
2022-11-09T11:58:10.918Z,12.65
2022-11-09T12:00:19.058Z,13.77
2022-11-09T12:02:35.834Z,12.23
2022-11-09T12:04:21.996Z,11.90
2022-11-09T12:06:38.523Z,14.95
2022-11-09T12:08:23.274Z,12.35
2022-11-09T12:10:11.802Z,13.25
2022-11-09T12:11:48.427Z,14.00
2022-11-09T12:13:30.683Z,13.10
2022-11-09T12:15:19.913Z,13.60
2022-11-09T12:17:17.583Z,14.32
2022-11-09T12:19:16.070Z,13.07
2022-11-09T12:21:19.237Z,13.15
2022-11-09T12:23:03.900Z,13.00
2022-11-09T12:25:08.384Z,13.57
2022-11-09T12:27:30.930Z,14.45
2022-11-09T12:29:03.163Z,14.73
2022-11-09T12:30:40.517Z,12.57
2022-11-09T12:32:32.207Z,13.52
2022-11-09T12:34:00.571Z,14.57
2022-11-09T12:35:57.479Z,14.35
2022-11-09T12:37:28.113Z,13.63
2022-11-09T12:39:04.121Z,13.15
2022-11-09T12:40:33.434Z,13.50
2022-11-09T12:42:07.476Z,13.98
2022-11-09T12:43:52.148Z,14.07
2022-11-09T12:45:33.637Z,13.55
2022-11-09T12:47:07.847Z,12.90
2022-11-09T12:48:32.590Z,12.60
2022-11-09T12:49:57.898Z,13.82
2022-11-09T12:51:20.673Z,13.10
2022-11-09T12:52:45.150Z,14.15
2022-11-09T12:54:12.196Z,13.65
2022-11-09T12:56:12.528Z,14.13
2022-11-09T12:57:34.005Z,12.63
2022-11-09T12:59:33.392Z,13.45
2022-11-09T13:00:58.193Z,12.80
2022-11-09T13:02:54.606Z,14.02
2022-11-09T13:04:22.011Z,14.00
2022-11-09T13:05:45.808Z,13.38
2022-11-09T13:07:07.471Z,15.75
2022-11-09T13:08:31.755Z,13.73
2022-11-09T13:09:58.995Z,13.98
2022-11-09T13:11:40.638Z,14.25
2022-11-09T13:13:24.513Z,13.48
2022-11-09T13:14:46.967Z,13.95
2022-11-09T13:16:20.186Z,14.38
2022-11-09T13:18:35.247Z,13.27
2022-11-09T13:19:57.663Z,13.75
2022-11-09T13:21:21.876Z,13.38
2022-11-09T13:22:43.501Z,13.48
2022-11-09T13:24:34.351Z,14.05
2022-11-09T13:25:57.679Z,14.38
2022-11-09T13:27:44.336Z,13.82
2022-11-09T13:29:20.614Z,13.70
2022-11-09T13:30:43.468Z,14.13
2022-11-09T13:32:13.979Z,13.55
2022-11-09T13:33:36.130Z,15.13
2022-11-09T13:35:03.603Z,14.88
2022-11-09T13:36:25.168Z,14.82
2022-11-09T13:37:56.617Z,14.63
2022-11-09T13:39:30.921Z,14.27
2022-11-09T13:41:00.268Z,15.68
2022-11-09T13:42:33.770Z,14.85
2022-11-09T13:44:34.199Z,14.07
2022-11-09T13:46:35.642Z,15.13
2022-11-09T13:47:57.376Z,14.38
2022-11-09T13:49:52.234Z,13.50
2022-11-09T13:51:37.572Z,14.40
2022-11-09T13:53:01.377Z,14.65
2022-11-09T13:54:30.175Z,13.10
2022-11-09T13:55:51.776Z,16.15
2022-11-09T13:57:13.636Z,15.38
2022-11-09T13:58:38.930Z,15.30
2022-11-09T14:00:02.430Z,15.88
2022-11-09T14:01:45.014Z,14.65
2022-11-09T14:03:22.937Z,13.77
2022-11-09T14:04:45.072Z,14.80
2022-11-09T14:06:06.953Z,15.00
2022-11-09T14:07:38.679Z,13.32
2022-11-09T14:09:01.140Z,14.05
2022-11-09T14:10:56.439Z,14.05
2022-11-09T14:12:45.730Z,13.77
2022-11-09T14:14:32.499Z,13.77
2022-11-09T14:16:06.377Z,15.20
2022-11-09T14:18:05.785Z,13.95
2022-11-09T14:19:48.042Z,15.13
2022-11-09T14:21:35.020Z,14.77
2022-11-09T14:22:56.516Z,13.57
2022-11-09T14:24:22.246Z,15.13
2022-11-09T14:25:44.313Z,13.88
2022-11-09T14:27:09.847Z,15.20
2022-11-09T14:28:34.656Z,14.77
2022-11-09T14:30:01.550Z,15.73
2022-11-09T14:31:33.675Z,14.43
2022-11-09T14:32:56.963Z,14.77
2022-11-09T14:34:20.761Z,15.00
2022-11-09T14:35:42.244Z,15.55
2022-11-09T14:37:06.688Z,14.35
2022-11-09T14:38:43.043Z,15.02
2022-11-09T14:40:05.443Z,15.63
2022-11-09T14:41:28.380Z,15.00
2022-11-09T14:43:16.636Z,15.25
2022-11-09T14:44:43.949Z,14.40
2022-11-09T14:46:14.832Z,15.57
2022-11-09T14:49:02.490Z,15.32
2022-11-09T14:50:36.223Z,14.23
2022-11-09T14:51:57.717Z,14.93
2022-11-09T14:53:32.367Z,15.77
2022-11-09T14:54:54.703Z,14.98
2022-11-09T14:56:21.491Z,16.20
2022-11-09T14:57:44.491Z,15.13
2022-11-09T14:59:18.593Z,15.20
2022-11-09T15:00:44.758Z,15.25
2022-11-09T15:02:19.898Z,14.93
2022-11-09T15:03:41.390Z,16.00
2022-11-09T15:05:06.301Z,16.45
2022-11-09T15:06:29.408Z,15.95
2022-11-09T15:07:51.708Z,14.73
2022-11-09T15:09:20.512Z,15.38
2022-11-09T15:10:48.304Z,15.05
2022-11-09T15:12:18.824Z,16.42
2022-11-09T15:13:41.801Z,15.80
2022-11-09T15:15:07.189Z,16.50
2022-11-09T15:16:31.164Z,16.90
2022-11-09T15:17:53.244Z,17.17
2022-11-09T15:19:30.681Z,15.40
2022-11-09T15:21:24.858Z,17.00
2022-11-09T15:22:59.218Z,16.40
2022-11-09T15:24:23.221Z,17.42
2022-11-09T15:25:44.879Z,16.77
2022-11-09T15:27:32.247Z,15.82
2022-11-09T15:28:53.612Z,18.23
2022-11-09T15:30:56.900Z,16.55
2022-11-09T15:32:19.961Z,16.90
2022-11-09T15:33:47.134Z,16.42
2022-11-09T15:35:17.879Z,17.17
2022-11-09T15:36:44.861Z,18.15
2022-11-09T15:38:37.780Z,16.60
2022-11-09T15:39:59.773Z,16.73
2022-11-09T15:41:24.206Z,15.98
2022-11-09T15:42:46.539Z,16.48
2022-11-09T15:44:10.103Z,18.15
2022-11-09T15:45:32.350Z,17.55
2022-11-09T15:46:54.563Z,16.17
2022-11-09T15:48:15.914Z,15.68
2022-11-09T15:49:37.575Z,17.67